createdAt,value
2023-03-13T00:03:07.158Z,99621.47
2023-03-13T00:08:08.555Z,99608.97
2023-03-13T00:13:10.157Z,99610.28
2023-03-13T00:18:11.725Z,99593.94
2023-03-13T00:23:13.231Z,99592.00
2023-03-13T00:28:14.583Z,99583.94
2023-03-13T00:33:15.930Z,99580.50
2023-03-13T00:38:17.261Z,99576.19
2023-03-13T00:43:18.586Z,99572.53
2023-03-13T00:48:19.974Z,99556.47
2023-03-13T00:53:21.556Z,99546.16
2023-03-13T00:58:24.160Z,99533.34
2023-03-13T01:03:25.814Z,99510.22
2023-03-13T01:08:28.765Z,99509.63
2023-03-13T01:13:32.989Z,99504.88
2023-03-13T01:18:35.722Z,99502.25
2023-03-13T01:23:37.370Z,99505.19
2023-03-13T01:28:39.497Z,99487.81
2023-03-13T01:33:41.535Z,99476.94
2023-03-13T01:38:43.254Z,99464.09
2023-03-13T01:43:46.021Z,99459.34
2023-03-13T01:49:05.932Z,99438.66
2023-03-13T01:54:11.627Z,99431.22
2023-03-13T01:59:16.964Z,99422.94
2023-03-13T02:04:22.048Z,99416.94
2023-03-13T02:09:27.047Z,99413.22
2023-03-13T02:14:33.461Z,99412.25
2023-03-13T02:19:40.634Z,99409.63
2023-03-13T02:24:56.583Z,99400.66
2023-03-13T02:29:59.320Z,99402.34
2023-03-13T02:35:08.069Z,99388.66
2023-03-13T02:40:12.661Z,99366.34
2023-03-13T02:45:16.113Z,99359.53
2023-03-13T02:50:17.892Z,99360.53
2023-03-13T02:55:27.225Z,99345.22
2023-03-13T03:00:28.656Z,99334.72
2023-03-13T03:05:30.041Z,99325.41
2023-03-13T03:10:31.387Z,99303.03
2023-03-13T03:15:32.774Z,99292.28
2023-03-13T03:20:34.118Z,99285.47
2023-03-13T03:25:35.462Z,99300.13
2023-03-13T03:30:36.838Z,99303.69
2023-03-13T03:35:38.522Z,99297.31
2023-03-13T03:40:40.063Z,99301.00
2023-03-13T03:45:41.415Z,99303.06
2023-03-13T03:50:43.453Z,99309.47
2023-03-13T03:55:45.108Z,99290.19
2023-03-13T04:00:48.150Z,99285.19
2023-03-13T04:05:49.617Z,99283.78
2023-03-13T04:10:51.376Z,99281.03
2023-03-13T04:15:52.845Z,99272.34
2023-03-13T04:21:05.545Z,99269.28
2023-03-13T04:26:06.934Z,99245.94
2023-03-13T04:31:08.568Z,99240.19
2023-03-13T04:36:10.143Z,99241.41
2023-03-13T04:41:11.520Z,99232.13
2023-03-13T04:46:12.956Z,99224.06
2023-03-13T04:51:14.408Z,99231.50
2023-03-13T04:56:41.176Z,99198.03
2023-03-13T05:01:43.871Z,99197.41
2023-03-13T05:06:45.275Z,99202.84
2023-03-13T05:11:46.627Z,99199.78
2023-03-13T05:16:48.021Z,99183.47
2023-03-13T05:21:49.438Z,99174.19
2023-03-13T05:26:50.821Z,99158.88
2023-03-13T05:31:54.676Z,99149.59
2023-03-13T05:36:56.114Z,99130.38
2023-03-13T05:41:57.595Z,99143.19
2023-03-13T05:46:59.011Z,99173.59
2023-03-13T05:52:00.440Z,99186.16
2023-03-13T05:57:01.894Z,99165.47
2023-03-13T06:02:03.537Z,99142.88
2023-03-13T06:07:05.399Z,99123.22
2023-03-13T06:12:08.749Z,99106.66
2023-03-13T06:17:10.421Z,99108.69
2023-03-13T06:22:12.055Z,99078.44
2023-03-13T06:27:14.498Z,99085.44
2023-03-13T06:32:16.322Z,99094.13
2023-03-13T06:37:18.155Z,99092.66
2023-03-13T06:42:19.792Z,99111.91
2023-03-13T06:47:21.480Z,99121.00
2023-03-13T06:52:28.746Z,99132.59
2023-03-13T06:57:38.927Z,99110.97
2023-03-13T07:02:40.415Z,99104.88
2023-03-13T07:07:42.556Z,99132.63
2023-03-13T07:12:44.463Z,99126.31
2023-03-13T07:17:45.862Z,99133.50
2023-03-13T07:22:51.837Z,99127.97
2023-03-13T07:27:53.415Z,99136.44
2023-03-13T07:32:54.874Z,99133.22
2023-03-13T07:37:56.301Z,99126.88
2023-03-13T07:42:57.642Z,99120.16
2023-03-13T07:47:58.964Z,99106.81
2023-03-13T07:53:00.447Z,99117.09
2023-03-13T07:58:01.818Z,99113.16
2023-03-13T08:03:04.884Z,99113.88
2023-03-13T08:08:06.681Z,99112.34
2023-03-13T08:13:08.034Z,99114.75
2023-03-13T08:18:09.413Z,99122.09
2023-03-13T08:23:10.781Z,99118.88
2023-03-13T08:28:12.436Z,99109.88
2023-03-13T08:33:13.820Z,99103.44
2023-03-13T08:38:15.209Z,99099.75
2023-03-13T08:43:16.655Z,99097.69
2023-03-13T08:48:17.987Z,99104.44
2023-03-13T08:53:19.356Z,99104.00
2023-03-13T08:58:20.762Z,99117.00
2023-03-13T09:03:22.295Z,99116.88
2023-03-13T09:08:23.895Z,99113.22
2023-03-13T09:13:27.092Z,99101.03
2023-03-13T09:18:29.320Z,99094.91
2023-03-13T09:23:30.773Z,99094.44
2023-03-13T09:28:33.275Z,99091.97
2023-03-13T09:33:34.996Z,99090.78
2023-03-13T09:38:37.007Z,99089.69
2023-03-13T09:44:08.702Z,99063.09
2023-03-13T09:49:34.722Z,99040.25
2023-03-13T09:55:03.464Z,99041.72
2023-03-13T10:00:16.318Z,99034.94
2023-03-13T10:05:22.318Z,99045.19
2023-03-13T10:10:43.207Z,99059.66
2023-03-13T10:15:58.130Z,99053.41
2023-03-13T10:21:11.240Z,99049.97
2023-03-13T10:26:21.087Z,99036.47
2023-03-13T10:31:32.950Z,99035.00
2023-03-13T10:36:46.486Z,99045.75
2023-03-13T10:41:56.457Z,99028.38
2023-03-13T10:47:02.408Z,99045.47
2023-03-13T10:52:05.287Z,99045.91
2023-03-13T10:57:18.741Z,99034.16
2023-03-13T11:02:39.633Z,99023.44
2023-03-13T11:07:41.067Z,99021.81
2023-03-13T11:12:47.713Z,99016.41
2023-03-13T11:18:06.473Z,99022.63
2023-03-13T11:23:28.535Z,99028.91
2023-03-13T11:28:43.253Z,99010.00
2023-03-13T11:33:59.612Z,99008.06
2023-03-13T11:39:17.076Z,99004.13
2023-03-13T11:44:18.314Z,98996.38
2023-03-13T11:49:56.724Z,98980.53
2023-03-13T11:55:21.458Z,98961.69
2023-03-13T12:00:33.351Z,98955.41
2023-03-13T12:05:53.782Z,98940.88
2023-03-13T12:11:09.256Z,98915.88
2023-03-13T12:16:16.997Z,98930.47
2023-03-13T12:21:37.935Z,98925.41
2023-03-13T12:26:46.669Z,98909.44
2023-03-13T12:31:59.906Z,98914.56
2023-03-13T12:37:16.466Z,98899.69
2023-03-13T12:42:39.958Z,98880.50
2023-03-13T12:48:13.624Z,98882.59
2023-03-13T12:53:51.353Z,98878.31
2023-03-13T12:59:11.419Z,98857.09
2023-03-13T13:04:17.699Z,98841.91
2023-03-13T13:09:25.513Z,98825.97
2023-03-13T13:14:26.858Z,98831.88
2023-03-13T13:19:28.193Z,98804.63
2023-03-13T13:24:50.813Z,98802.06
2023-03-13T13:29:55.014Z,98784.75
2023-03-13T13:35:16.845Z,98765.50
2023-03-13T13:40:26.180Z,98751.81
2023-03-13T13:45:35.580Z,98725.34
2023-03-13T13:50:37.271Z,98708.81
2023-03-13T13:55:38.589Z,98698.69
2023-03-13T14:00:46.892Z,98663.16
2023-03-13T14:05:53.275Z,98649.31
2023-03-13T14:11:10.897Z,98626.72
2023-03-13T14:16:26.401Z,98632.75
2023-03-13T14:21:28.200Z,98631.13
2023-03-13T14:26:30.248Z,98617.25
2023-03-13T14:31:35.631Z,98604.47
2023-03-13T14:36:51.641Z,98571.78
2023-03-13T14:41:53.782Z,98555.22
2023-03-13T14:46:58.103Z,98541.59
2023-03-13T14:52:03.072Z,98529.63
2023-03-13T14:57:17.778Z,98525.84
2023-03-13T15:02:26.699Z,98526.91
2023-03-13T15:07:52.339Z,98524.44
2023-03-13T15:12:53.708Z,98606.41
2023-03-13T15:17:55.172Z,98526.50
2023-03-13T15:22:58.068Z,98504.75
2023-03-13T15:27:59.408Z,98503.00
2023-03-13T15:33:00.881Z,98531.09
2023-03-13T15:38:02.950Z,98515.06
2023-03-13T15:43:04.359Z,98495.47
2023-03-13T15:48:15.524Z,98484.09
2023-03-13T15:53:21.239Z,98458.44
2023-03-13T15:58:22.872Z,98487.06
2023-03-13T16:03:26.623Z,98482.94
2023-03-13T16:08:36.999Z,98516.28
2023-03-13T16:13:38.976Z,98458.53
2023-03-13T16:18:40.861Z,98493.94
2023-03-13T16:23:42.636Z,98475.38
2023-03-13T16:28:44.995Z,98439.47
2023-03-13T16:33:46.882Z,98429.25
2023-03-13T16:38:48.835Z,98416.81
2023-03-13T16:43:50.956Z,98428.50
2023-03-13T16:48:53.943Z,98428.19
2023-03-13T16:53:56.947Z,98455.91
2023-03-13T16:58:58.488Z,98469.91
2023-03-13T17:04:00.111Z,98485.59
2023-03-13T17:09:02.147Z,98475.94
2023-03-13T17:14:06.987Z,98465.72
2023-03-13T17:19:13.517Z,98465.66
2023-03-13T17:24:14.890Z,98461.06
2023-03-13T17:29:18.798Z,98450.75
2023-03-13T17:34:20.225Z,98460.97
2023-03-13T17:39:24.402Z,98446.53
2023-03-13T17:44:25.932Z,98431.13
2023-03-13T17:49:29.456Z,98426.06
2023-03-13T17:54:30.812Z,98417.47
2023-03-13T17:59:32.192Z,98414.75
2023-03-13T18:04:33.595Z,98429.25
2023-03-13T18:09:35.074Z,98448.94
2023-03-13T18:14:37.418Z,98433.59
2023-03-13T18:19:38.822Z,98420.72
2023-03-13T18:24:40.279Z,98416.66
2023-03-13T18:29:42.605Z,98418.03
2023-03-13T18:34:44.857Z,98408.84
2023-03-13T18:39:46.276Z,98384.06
2023-03-13T18:44:47.837Z,98404.25
2023-03-13T18:55:34.617Z,98401.06
2023-03-13T19:00:36.200Z,98401.63
2023-03-13T19:05:37.622Z,98440.00
2023-03-13T19:10:40.202Z,98436.34
2023-03-13T19:15:41.606Z,98381.84
2023-03-13T19:20:42.971Z,98375.16
2023-03-13T19:25:44.316Z,98405.19
2023-03-13T19:30:47.523Z,98420.09
2023-03-13T19:35:48.904Z,98376.47
2023-03-13T19:40:50.397Z,98306.50
2023-03-13T19:45:51.771Z,98364.44
2023-03-13T19:50:53.258Z,98333.13
2023-03-13T19:55:54.604Z,98296.28
2023-03-13T20:00:57.448Z,98274.94
2023-03-13T20:11:24.531Z,98294.25
2023-03-13T20:16:27.901Z,98263.88
2023-03-13T20:21:38.815Z,98306.41
2023-03-13T20:26:40.241Z,98295.50
2023-03-13T20:31:41.610Z,98311.34
2023-03-13T20:36:43.032Z,98297.22
2023-03-13T20:41:44.354Z,98279.56
2023-03-13T20:46:46.067Z,98289.19
2023-03-13T20:51:47.472Z,98283.47
2023-03-13T20:56:48.876Z,98298.50
2023-03-13T21:01:50.268Z,98280.00
2023-03-13T21:06:52.243Z,98282.38
2023-03-13T21:11:53.591Z,98287.75
2023-03-13T21:16:56.677Z,98309.44
2023-03-13T21:21:58.238Z,98329.63
2023-03-13T21:26:59.944Z,98322.97
2023-03-13T21:32:01.461Z,98311.88
2023-03-13T21:37:02.942Z,98303.78
2023-03-13T21:42:04.349Z,98289.25
2023-03-13T21:47:06.849Z,98279.69
2023-03-13T21:52:08.331Z,98293.88
2023-03-13T21:57:09.745Z,98322.00
2023-03-13T22:02:12.991Z,98322.34
2023-03-13T22:07:14.392Z,98340.84
2023-03-13T22:12:17.456Z,98334.88
2023-03-13T22:17:20.278Z,98321.41
2023-03-13T22:22:22.289Z,98323.53
2023-03-13T22:27:24.148Z,98289.81
2023-03-13T22:32:25.873Z,98301.41
2023-03-13T22:37:27.591Z,98305.63
2023-03-13T22:42:29.168Z,98343.31
2023-03-13T22:47:32.609Z,98320.63
2023-03-13T22:52:34.064Z,98315.59
2023-03-13T22:57:35.680Z,98309.38
2023-03-13T23:02:37.107Z,98301.50
2023-03-13T23:07:40.763Z,98267.44
2023-03-13T23:12:42.457Z,98259.63
2023-03-13T23:17:43.958Z,98250.47
2023-03-13T23:22:47.552Z,98263.34
2023-03-13T23:27:49.298Z,98263.13
2023-03-13T23:32:50.673Z,98289.09
2023-03-13T23:37:55.027Z,98302.34
2023-03-13T23:42:56.473Z,98321.53
2023-03-13T23:47:57.908Z,98366.84
2023-03-13T23:52:59.306Z,98370.25
2023-03-13T23:58:00.648Z,98372.22
